createdAt,value
2019-04-28T00:01:16.577Z,13.33
2019-04-28T00:03:45.066Z,12.03
2019-04-28T00:06:13.563Z,9.48
2019-04-28T00:08:42.904Z,9.00
2019-04-28T00:11:11.793Z,14.20
2019-04-28T00:13:41.771Z,12.97
2019-04-28T00:16:11.550Z,12.20
2019-04-28T00:18:41.535Z,11.50
2019-04-28T00:21:31.826Z,9.05
2019-04-28T00:24:14.086Z,13.03
2019-04-28T00:26:44.231Z,9.83
2019-04-28T00:29:12.728Z,12.53
2019-04-28T00:31:41.476Z,6.40
2019-04-28T00:34:11.452Z,9.95
2019-04-28T00:36:41.239Z,7.57
2019-04-28T00:39:11.135Z,10.13
2019-04-28T00:41:41.952Z,4.07
2019-04-28T00:44:11.994Z,3.12
2019-04-28T00:46:41.306Z,4.27
2019-04-28T00:49:11.645Z,3.03
2019-04-28T00:51:41.511Z,4.13
2019-04-28T00:54:12.039Z,3.65
2019-04-28T00:56:41.857Z,1.97
2019-04-28T00:59:11.767Z,1.75
2019-04-28T01:01:42.592Z,2.17
2019-04-28T01:04:11.894Z,3.93
2019-04-28T01:06:40.527Z,1.80
2019-04-28T01:09:09.270Z,2.23
2019-04-28T01:11:38.156Z,6.37
2019-04-28T01:14:06.566Z,2.60
2019-04-28T01:16:36.625Z,5.20
2019-04-28T01:19:22.974Z,3.40
2019-04-28T01:22:10.253Z,3.30
2019-04-28T01:24:40.372Z,4.43
2019-04-28T01:27:10.487Z,3.63
2019-04-28T01:29:40.299Z,4.03
2019-04-28T01:32:10.638Z,2.20
2019-04-28T01:34:40.004Z,3.30
2019-04-28T01:37:09.726Z,5.78
2019-04-28T01:39:41.006Z,5.40
2019-04-28T01:42:10.512Z,3.23
2019-04-28T01:44:41.854Z,2.90
2019-04-28T01:47:10.664Z,3.90
2019-04-28T01:49:40.606Z,2.63
2019-04-28T01:52:10.400Z,3.27
2019-04-28T01:54:40.313Z,3.30
2019-04-28T01:57:10.152Z,7.93
2019-04-28T01:59:40.336Z,5.60
2019-04-28T02:02:10.142Z,1.93
2019-04-28T02:04:40.227Z,4.53
2019-04-28T02:07:10.847Z,3.87
2019-04-28T02:09:39.645Z,3.13
2019-04-28T02:12:08.235Z,3.63
2019-04-28T02:14:36.639Z,5.17
2019-04-28T02:17:05.410Z,5.03
2019-04-28T02:19:33.827Z,4.73
2019-04-28T02:22:03.878Z,4.70
2019-04-28T02:24:33.959Z,4.33
2019-04-28T02:27:02.515Z,6.43
2019-04-28T02:29:31.188Z,6.13
2019-04-28T02:32:02.152Z,8.10
2019-04-28T02:34:31.185Z,4.78
2019-04-28T02:37:01.569Z,3.37
2019-04-28T02:39:31.169Z,5.57
2019-04-28T02:42:01.427Z,8.53
2019-04-28T02:44:33.418Z,5.23
2019-04-28T02:47:01.024Z,4.13
2019-04-28T02:49:40.751Z,5.58
2019-04-28T02:52:30.996Z,8.40
2019-04-28T02:55:03.010Z,5.07
2019-04-28T02:57:30.578Z,7.00
2019-04-28T03:00:00.517Z,7.10
2019-04-28T03:02:31.626Z,6.40
2019-04-28T03:05:00.292Z,8.63
2019-04-28T03:07:31.281Z,4.78
2019-04-28T03:10:01.126Z,11.87
2019-04-28T03:12:32.764Z,9.20
2019-04-28T03:15:01.207Z,7.30
2019-04-28T03:17:30.950Z,7.07
2019-04-28T03:20:01.077Z,11.20
2019-04-28T03:22:31.276Z,6.43
2019-04-28T03:25:01.831Z,10.98
2019-04-28T03:27:35.100Z,12.70
2019-04-28T03:30:06.402Z,9.43
2019-04-28T03:32:45.635Z,6.83
2019-04-28T03:35:06.952Z,9.83
2019-04-28T03:37:35.434Z,7.43
2019-04-28T03:40:06.077Z,13.37
2019-04-28T03:42:34.554Z,11.00
2019-04-28T03:45:04.802Z,7.50
2019-04-28T03:47:33.209Z,6.53
2019-04-28T03:50:01.904Z,9.17
2019-04-28T03:52:31.836Z,6.23
2019-04-28T03:55:00.688Z,9.97
2019-04-28T03:57:31.470Z,11.47
2019-04-28T04:00:01.573Z,11.73
2019-04-28T04:02:31.139Z,10.17
2019-04-28T04:05:03.288Z,12.67
2019-04-28T04:07:31.147Z,10.40
2019-04-28T04:10:01.545Z,8.10
2019-04-28T04:12:31.777Z,10.50
2019-04-28T04:15:16.950Z,7.13
2019-04-28T04:18:02.143Z,7.25
2019-04-28T04:20:31.188Z,9.90
2019-04-28T04:23:01.457Z,8.63
2019-04-28T04:25:31.369Z,7.13
2019-04-28T04:28:03.480Z,8.33
2019-04-28T04:30:31.107Z,10.00
2019-04-28T04:33:01.345Z,6.47
2019-04-28T04:35:31.606Z,7.20
2019-04-28T04:38:00.617Z,10.03
2019-04-28T04:40:31.839Z,7.67
2019-04-28T04:43:01.579Z,7.47
2019-04-28T04:45:30.485Z,7.23
2019-04-28T04:48:00.557Z,7.07
2019-04-28T04:50:31.364Z,8.93
2019-04-28T04:53:02.347Z,7.10
2019-04-28T04:55:30.861Z,7.30
2019-04-28T04:58:00.769Z,6.03
2019-04-28T05:00:31.081Z,6.80
2019-04-28T05:03:03.837Z,8.60
2019-04-28T05:05:40.428Z,6.77
2019-04-28T05:08:10.513Z,8.57
2019-04-28T05:10:40.356Z,8.67
2019-04-28T05:13:10.210Z,7.72
2019-04-28T05:15:40.027Z,8.50
2019-04-28T05:18:10.169Z,7.65
2019-04-28T05:20:40.361Z,9.43
2019-04-28T05:23:16.505Z,4.10
2019-04-28T05:25:44.987Z,8.20
2019-04-28T05:28:13.411Z,5.33
2019-04-28T05:30:42.925Z,7.17
2019-04-28T05:33:13.239Z,5.20
2019-04-28T05:35:41.712Z,9.33
2019-04-28T05:38:10.298Z,10.40
2019-04-28T05:40:39.914Z,12.07
2019-04-28T05:43:08.467Z,7.70
2019-04-28T05:45:36.920Z,9.13
2019-04-28T05:48:05.480Z,9.53
2019-04-28T05:50:47.710Z,6.87
2019-04-28T05:53:21.728Z,9.68
2019-04-28T05:55:54.677Z,7.10
2019-04-28T05:58:27.618Z,7.50
2019-04-28T06:01:12.990Z,9.10
2019-04-28T06:03:41.695Z,11.27
2019-04-28T06:06:10.306Z,8.57
2019-04-28T06:08:40.804Z,7.70
2019-04-28T06:11:27.273Z,8.80
2019-04-28T06:13:55.695Z,8.73
2019-04-28T06:16:24.198Z,8.63
2019-04-28T06:18:52.634Z,10.27
2019-04-28T06:21:21.056Z,7.27
2019-04-28T06:23:49.483Z,8.33
2019-04-28T06:26:17.949Z,6.30
2019-04-28T06:28:46.371Z,4.57
2019-04-28T06:31:14.789Z,7.80
2019-04-28T06:33:44.580Z,8.77
2019-04-28T06:36:13.121Z,7.95
2019-04-28T06:38:41.527Z,7.67
2019-04-28T06:41:09.965Z,6.80
2019-04-28T06:43:38.426Z,7.80
2019-04-28T06:46:06.850Z,11.57
2019-04-28T06:48:35.294Z,11.23
2019-04-28T06:51:03.710Z,7.47
2019-04-28T06:53:32.158Z,9.77
2019-04-28T06:56:00.578Z,8.03
2019-04-28T06:58:29.286Z,8.63
2019-04-28T07:00:57.991Z,9.27
2019-04-28T07:03:26.435Z,8.83
2019-04-28T07:05:54.908Z,8.43
2019-04-28T07:08:23.371Z,8.00
2019-04-28T07:10:51.815Z,7.10
2019-04-28T07:13:20.709Z,8.70
2019-04-28T07:15:49.339Z,11.07
2019-04-28T07:18:17.785Z,8.00
2019-04-28T07:20:47.834Z,6.63
2019-04-28T07:23:16.247Z,5.40
2019-04-28T07:25:44.819Z,8.70
2019-04-28T07:28:13.403Z,9.60
2019-04-28T07:30:42.152Z,7.07
2019-04-28T07:33:10.854Z,9.23
2019-04-28T07:35:39.280Z,8.17
2019-04-28T07:38:07.690Z,8.97
2019-04-28T07:40:36.442Z,8.40
2019-04-28T07:43:05.386Z,7.92
2019-04-28T07:45:33.818Z,8.73
2019-04-28T07:48:02.626Z,9.63
2019-04-28T07:50:31.045Z,9.93
2019-04-28T07:53:01.113Z,9.53
2019-04-28T07:55:29.561Z,9.47
2019-04-28T07:57:58.063Z,9.87
2019-04-28T08:00:31.107Z,7.30
2019-04-28T08:02:59.821Z,9.30
2019-04-28T08:05:28.238Z,10.97
2019-04-28T08:07:58.327Z,10.93
2019-04-28T08:10:26.850Z,7.73
2019-04-28T08:12:55.267Z,9.30
2019-04-28T08:15:23.755Z,8.43
2019-04-28T08:17:52.190Z,9.77
2019-04-28T08:20:20.620Z,7.07
2019-04-28T08:22:49.045Z,6.43
2019-04-28T08:25:17.481Z,8.20
2019-04-28T08:27:45.910Z,5.67
2019-04-28T08:30:14.477Z,9.93
2019-04-28T08:32:44.560Z,8.50
2019-04-28T08:35:13.273Z,11.93
2019-04-28T08:37:41.737Z,8.43
2019-04-28T08:40:10.420Z,10.00
2019-04-28T08:42:38.828Z,9.43
2019-04-28T08:45:07.887Z,6.92
2019-04-28T08:47:36.384Z,7.00
2019-04-28T08:50:05.606Z,9.57
2019-04-28T08:52:34.031Z,6.83
2019-04-28T08:55:02.810Z,7.80
2019-04-28T08:57:31.218Z,9.57
2019-04-28T08:59:59.638Z,10.13
2019-04-28T09:02:28.703Z,8.27
2019-04-28T09:04:57.320Z,7.20
2019-04-28T09:07:25.845Z,6.10
2019-04-28T09:09:54.280Z,8.13
2019-04-28T09:12:22.696Z,7.62
2019-04-28T09:14:51.170Z,6.93
2019-04-28T09:17:19.607Z,6.83
2019-04-28T09:19:48.026Z,7.37
2019-04-28T09:22:16.438Z,5.85
2019-04-28T09:24:44.874Z,10.17
2019-04-28T09:27:14.260Z,7.20
2019-04-28T09:29:42.912Z,7.63
2019-04-28T09:32:11.489Z,9.20
2019-04-28T09:34:41.252Z,7.03
2019-04-28T09:37:09.672Z,6.97
2019-04-28T09:39:48.777Z,9.43
2019-04-28T09:42:30.902Z,8.07
2019-04-28T09:45:14.283Z,7.30
2019-04-28T09:47:42.706Z,9.27
2019-04-28T09:50:11.127Z,9.83
2019-04-28T09:52:39.556Z,6.90
2019-04-28T09:55:08.042Z,9.60
2019-04-28T09:57:36.463Z,9.33
2019-04-28T10:00:09.591Z,8.47
2019-04-28T10:02:38.013Z,8.17
2019-04-28T10:05:09.534Z,7.97
2019-04-28T10:07:38.260Z,7.77
2019-04-28T10:10:11.722Z,7.43
2019-04-28T10:12:40.139Z,9.87
2019-04-28T10:15:09.523Z,7.23
2019-04-28T10:17:38.426Z,7.13
2019-04-28T10:20:07.599Z,6.30
2019-04-28T10:22:36.035Z,6.93
2019-04-28T10:25:08.648Z,7.60
2019-04-28T10:27:37.080Z,7.67
2019-04-28T10:30:10.260Z,8.63
2019-04-28T10:32:38.671Z,7.17
2019-04-28T10:35:08.236Z,7.97
2019-04-28T10:37:36.675Z,7.60
2019-04-28T10:40:20.481Z,6.25
2019-04-28T10:42:48.922Z,8.13
2019-04-28T10:45:18.981Z,9.58
2019-04-28T10:47:47.742Z,8.33
2019-04-28T10:50:17.292Z,6.47
2019-04-28T10:52:48.352Z,6.77
2019-04-28T10:55:16.770Z,7.47
2019-04-28T10:57:45.214Z,6.40
2019-04-28T11:00:15.648Z,5.50
2019-04-28T11:02:44.065Z,6.37
2019-04-28T11:05:20.291Z,5.60
2019-04-28T11:07:48.705Z,7.23
2019-04-28T11:10:19.169Z,6.37
2019-04-28T11:12:47.680Z,4.80
2019-04-28T11:15:19.355Z,7.22
2019-04-28T11:17:47.766Z,6.43
2019-04-28T11:20:16.315Z,5.77
2019-04-28T11:22:44.754Z,7.83
2019-04-28T11:25:13.487Z,6.20
2019-04-28T11:27:41.932Z,8.00
2019-04-28T11:30:10.924Z,7.97
2019-04-28T11:32:40.959Z,6.13
2019-04-28T11:35:23.485Z,6.90
2019-04-28T11:37:51.977Z,5.97
2019-04-28T11:40:20.398Z,6.50
2019-04-28T11:42:49.149Z,6.13
2019-04-28T11:45:17.650Z,8.45
2019-04-28T11:47:46.070Z,7.43
2019-04-28T11:50:14.665Z,6.92
2019-04-28T11:52:43.152Z,6.73
2019-04-28T11:55:11.916Z,4.83
2019-04-28T11:57:40.366Z,5.15
2019-04-28T12:00:17.210Z,6.70
2019-04-28T12:02:45.631Z,5.77
2019-04-28T12:05:14.204Z,5.00
2019-04-28T12:07:42.641Z,6.57
2019-04-28T12:10:12.772Z,7.20
2019-04-28T12:12:43.066Z,7.17
2019-04-28T12:15:13.935Z,6.27
2019-04-28T12:18:00.534Z,6.07
2019-04-28T12:20:28.960Z,6.73
2019-04-28T12:22:57.375Z,6.27
2019-04-28T12:25:25.839Z,7.83
2019-04-28T12:27:54.259Z,5.37
2019-04-28T12:30:22.679Z,6.07
2019-04-28T12:32:51.113Z,5.83
2019-04-28T12:35:19.558Z,6.53
2019-04-28T12:37:48.050Z,4.87
2019-04-28T12:40:16.740Z,6.60
2019-04-28T12:42:45.152Z,5.53
2019-04-28T12:45:14.339Z,5.50
2019-04-28T12:47:42.772Z,6.03
2019-04-28T12:50:22.839Z,5.50
2019-04-28T12:52:51.277Z,4.97
2019-04-28T12:55:19.767Z,5.63
2019-04-28T12:57:48.199Z,6.55
2019-04-28T13:00:24.447Z,7.05
2019-04-28T13:03:09.283Z,4.67
2019-04-28T13:05:39.813Z,5.17
2019-04-28T13:08:08.225Z,5.67
2019-04-28T13:10:36.721Z,5.03
2019-04-28T13:13:05.346Z,5.87
2019-04-28T13:15:34.242Z,4.50
2019-04-28T13:18:02.693Z,4.87
2019-04-28T13:20:31.177Z,5.17
2019-04-28T13:22:59.599Z,4.43
2019-04-28T13:25:28.015Z,5.90
2019-04-28T13:27:56.454Z,4.93
2019-04-28T13:30:24.872Z,5.03
2019-04-28T13:32:53.318Z,5.60
2019-04-28T13:35:21.766Z,5.30
2019-04-28T13:37:50.215Z,6.23
2019-04-28T13:40:25.863Z,4.50
2019-04-28T13:42:54.360Z,5.30
2019-04-28T13:45:27.283Z,5.30
2019-04-28T13:47:55.703Z,5.13
2019-04-28T13:50:25.925Z,5.23
2019-04-28T13:52:54.372Z,6.13
2019-04-28T13:55:27.746Z,6.70
2019-04-28T13:57:58.042Z,5.20
2019-04-28T14:00:28.173Z,7.10
2019-04-28T14:03:14.669Z,6.37
2019-04-28T14:05:44.815Z,7.77
2019-04-28T14:08:13.301Z,8.03
2019-04-28T14:10:41.738Z,5.40
2019-04-28T14:13:10.175Z,5.72
2019-04-28T14:15:38.627Z,6.30
2019-04-28T14:18:07.068Z,5.70
2019-04-28T14:20:35.494Z,5.93
2019-04-28T14:23:04.000Z,5.90
2019-04-28T14:25:32.526Z,7.77
2019-04-28T14:28:00.934Z,5.07
2019-04-28T14:30:29.375Z,5.77
2019-04-28T14:32:58.128Z,8.77
2019-04-28T14:35:26.639Z,4.43
2019-04-28T14:37:55.086Z,4.47
2019-04-28T14:40:23.661Z,3.93
2019-04-28T14:42:52.133Z,7.57
2019-04-28T14:45:22.137Z,4.90
2019-04-28T14:47:50.851Z,5.07
2019-04-28T14:50:19.270Z,4.75
2019-04-28T14:52:47.729Z,6.27
2019-04-28T14:55:16.326Z,6.37
2019-04-28T14:57:44.763Z,5.17
2019-04-28T15:00:17.947Z,4.67
2019-04-28T15:02:57.262Z,4.60
2019-04-28T15:05:43.497Z,5.63
2019-04-28T15:08:19.753Z,6.80
2019-04-28T15:10:49.910Z,5.27
2019-04-28T15:13:19.462Z,5.97
2019-04-28T15:15:50.409Z,5.33
2019-04-28T15:18:18.861Z,5.78
2019-04-28T15:20:47.286Z,5.13
2019-04-28T15:23:17.302Z,6.40
2019-04-28T15:25:45.777Z,5.33
2019-04-28T15:28:14.264Z,5.30
2019-04-28T15:30:42.746Z,6.37
2019-04-28T15:33:11.448Z,7.47
2019-04-28T15:35:39.888Z,5.77
2019-04-28T15:38:08.379Z,7.13
2019-04-28T15:40:36.814Z,8.57
2019-04-28T15:43:06.774Z,7.73
2019-04-28T15:45:35.299Z,8.67
2019-04-28T15:48:03.717Z,9.37
2019-04-28T15:50:32.182Z,7.60
2019-04-28T15:53:00.642Z,9.37
2019-04-28T15:55:33.472Z,8.13
2019-04-28T15:58:03.538Z,8.47
2019-04-28T16:00:31.991Z,7.87
2019-04-28T16:03:00.610Z,7.23
2019-04-28T16:05:29.079Z,9.03
2019-04-28T16:07:57.570Z,6.80
2019-04-28T16:10:25.997Z,7.63
2019-04-28T16:12:54.532Z,6.93
2019-04-28T16:15:23.344Z,7.05
2019-04-28T16:17:51.764Z,7.33
2019-04-28T16:20:20.232Z,6.83
2019-04-28T16:22:48.719Z,5.60
2019-04-28T16:25:17.143Z,8.50
2019-04-28T16:27:45.560Z,6.57
2019-04-28T16:30:14.306Z,7.63
2019-04-28T16:32:45.723Z,6.40
2019-04-28T16:35:14.194Z,5.55
2019-04-28T16:37:42.749Z,5.33
2019-04-28T16:40:11.236Z,6.85
2019-04-28T16:42:43.499Z,6.57
2019-04-28T16:45:18.636Z,5.80
2019-04-28T16:47:47.368Z,5.43
2019-04-28T16:50:16.469Z,5.53
2019-04-28T16:52:45.409Z,6.10
2019-04-28T16:55:15.539Z,5.53
2019-04-28T16:57:48.691Z,5.60
2019-04-28T17:00:21.439Z,4.53
2019-04-28T17:02:49.854Z,6.40
2019-04-28T17:05:18.346Z,4.60
2019-04-28T17:07:52.763Z,5.83
2019-04-28T17:10:17.019Z,3.20
2019-04-28T17:12:45.446Z,3.27
2019-04-28T17:15:13.953Z,4.10
2019-04-28T17:17:42.364Z,8.90
2019-04-28T17:20:11.326Z,7.37
2019-04-28T17:22:40.334Z,5.33
2019-04-28T17:25:09.487Z,4.27
2019-04-28T17:27:37.935Z,3.70
2019-04-28T17:30:08.041Z,4.17
2019-04-28T17:32:36.451Z,5.10
2019-04-28T17:35:05.734Z,5.00
2019-04-28T17:37:34.240Z,3.83
2019-04-28T17:40:02.721Z,3.77
2019-04-28T17:42:31.145Z,4.33
2019-04-28T17:44:59.582Z,4.27
2019-04-28T17:47:28.005Z,2.67
2019-04-28T17:49:56.456Z,4.23
2019-04-28T17:52:25.450Z,6.27
2019-04-28T17:54:53.878Z,5.77
2019-04-28T17:57:22.303Z,6.20
2019-04-28T17:59:52.377Z,4.97
2019-04-28T18:02:40.762Z,5.17
2019-04-28T18:05:26.120Z,6.53
2019-04-28T18:07:56.629Z,5.30
2019-04-28T18:10:25.964Z,5.47
2019-04-28T18:13:00.533Z,5.87
2019-04-28T18:15:32.298Z,6.17
2019-04-28T18:18:02.360Z,4.73
2019-04-28T18:20:30.807Z,5.20
2019-04-28T18:22:59.234Z,5.75
2019-04-28T18:25:27.777Z,5.63
2019-04-28T18:27:56.223Z,5.03
2019-04-28T18:30:26.308Z,6.50
2019-04-28T18:32:56.368Z,5.43
2019-04-28T18:35:29.133Z,7.20
2019-04-28T18:38:14.397Z,6.40
2019-04-28T18:40:46.882Z,6.90
2019-04-28T18:43:23.034Z,7.70
2019-04-28T18:45:51.450Z,6.27
2019-04-28T18:48:20.240Z,5.40
2019-04-28T18:50:48.814Z,8.80
2019-04-28T18:53:17.232Z,4.90
2019-04-28T18:55:45.674Z,5.90
2019-04-28T18:58:14.127Z,6.17
2019-04-28T19:00:44.192Z,6.87
2019-04-28T19:03:12.618Z,8.20
2019-04-28T19:05:42.673Z,9.13
2019-04-28T19:08:30.735Z,8.08
2019-04-28T19:11:06.693Z,7.57
2019-04-28T19:13:36.738Z,7.80
2019-04-28T19:16:09.754Z,8.20
2019-04-28T19:18:39.836Z,7.15
2019-04-28T19:21:08.319Z,9.63
2019-04-28T19:23:36.750Z,8.97
2019-04-28T19:26:05.919Z,9.80
2019-04-28T19:28:34.345Z,10.40
2019-04-28T19:31:02.994Z,8.73
2019-04-28T19:33:31.426Z,7.80
2019-04-28T19:35:59.846Z,9.20
2019-04-28T19:38:31.215Z,10.40
2019-04-28T19:40:59.686Z,8.77
2019-04-28T19:43:28.177Z,9.30
2019-04-28T19:45:58.269Z,10.00
2019-04-28T19:48:26.719Z,8.07
2019-04-28T19:50:55.208Z,11.03
2019-04-28T19:53:23.662Z,7.93
2019-04-28T19:55:53.731Z,10.97
2019-04-28T19:58:29.911Z,10.03
2019-04-28T20:01:06.132Z,8.50
2019-04-28T20:03:34.612Z,8.40
2019-04-28T20:06:03.098Z,11.03
2019-04-28T20:08:31.555Z,6.60
2019-04-28T20:10:59.989Z,9.27
2019-04-28T20:13:31.326Z,9.87
2019-04-28T20:15:58.614Z,7.20
2019-04-28T20:18:29.493Z,7.37
2019-04-28T20:20:57.294Z,6.67
2019-04-28T20:23:25.724Z,9.23
2019-04-28T20:25:54.139Z,7.80
2019-04-28T20:28:22.876Z,8.48
2019-04-28T20:30:51.327Z,8.10
2019-04-28T20:33:19.754Z,7.15
2019-04-28T20:35:49.819Z,7.30
2019-04-28T20:38:22.335Z,5.27
2019-04-28T20:41:00.911Z,7.73
2019-04-28T20:43:30.154Z,7.03
2019-04-28T20:45:58.575Z,7.60
2019-04-28T20:48:27.070Z,8.50
2019-04-28T20:50:55.494Z,9.00
2019-04-28T20:53:23.914Z,9.97
2019-04-28T20:55:52.388Z,8.27
2019-04-28T20:58:20.902Z,12.00
2019-04-28T21:00:49.337Z,10.20
2019-04-28T21:03:17.747Z,8.68
2019-04-28T21:05:46.200Z,8.53
2019-04-28T21:08:14.619Z,7.67
2019-04-28T21:10:43.058Z,9.63
2019-04-28T21:13:11.518Z,8.27
2019-04-28T21:15:40.143Z,11.40
2019-04-28T21:18:08.574Z,10.87
2019-04-28T21:20:37.016Z,9.27
2019-04-28T21:23:05.511Z,8.27
2019-04-28T21:25:33.991Z,11.57
2019-04-28T21:28:02.447Z,11.47
2019-04-28T21:30:30.890Z,15.20
2019-04-28T21:32:59.361Z,14.80
2019-04-28T21:35:27.940Z,14.60
2019-04-28T21:37:56.428Z,13.10
2019-04-28T21:40:25.516Z,13.80
2019-04-28T21:43:07.626Z,16.43
2019-04-28T21:45:56.008Z,14.53
2019-04-28T21:48:32.065Z,10.67
2019-04-28T21:51:03.445Z,15.17
2019-04-28T21:53:31.864Z,12.77
2019-04-28T21:56:00.401Z,9.63
2019-04-28T21:58:33.422Z,13.57
2019-04-28T22:00:59.827Z,12.37
2019-04-28T22:03:28.280Z,12.63
2019-04-28T22:05:56.683Z,14.97
2019-04-28T22:08:25.106Z,14.27
2019-04-28T22:10:53.633Z,11.83
2019-04-28T22:13:22.066Z,11.60
2019-04-28T22:15:50.534Z,13.00
2019-04-28T22:18:19.006Z,14.68
2019-04-28T22:20:47.496Z,13.97
2019-04-28T22:23:18.966Z,14.28
2019-04-28T22:25:47.706Z,10.72
2019-04-28T22:28:16.128Z,10.50
2019-04-28T22:30:44.722Z,11.70
2019-04-28T22:33:13.716Z,11.97
2019-04-28T22:35:42.330Z,13.07
2019-04-28T22:38:10.756Z,15.27
2019-04-28T22:40:39.250Z,10.60
2019-04-28T22:43:07.669Z,9.57
2019-04-28T22:45:36.157Z,15.03
2019-04-28T22:48:05.958Z,10.43
2019-04-28T22:50:39.989Z,21.53
2019-04-28T22:53:08.483Z,12.83
2019-04-28T22:55:41.826Z,12.73
2019-04-28T22:58:17.875Z,9.97
2019-04-28T23:00:48.091Z,9.73
2019-04-28T23:03:33.423Z,9.73
2019-04-28T23:06:01.833Z,9.20
2019-04-28T23:08:30.395Z,11.50
2019-04-28T23:10:58.984Z,12.23
2019-04-28T23:13:27.419Z,13.30
2019-04-28T23:15:55.905Z,13.23
2019-04-28T23:18:26.032Z,13.27
2019-04-28T23:20:56.095Z,12.47
2019-04-28T23:23:24.526Z,9.00
2019-04-28T23:25:52.946Z,9.43
2019-04-28T23:28:21.369Z,14.07
2019-04-28T23:30:49.789Z,14.50
2019-04-28T23:33:18.627Z,12.73
2019-04-28T23:35:47.050Z,12.17
2019-04-28T23:38:15.471Z,12.43
2019-04-28T23:40:45.909Z,8.10
2019-04-28T23:43:21.688Z,15.43
2019-04-28T23:45:50.111Z,13.13
2019-04-28T23:48:21.215Z,16.17
2019-04-28T23:50:54.011Z,16.13
2019-04-28T23:53:40.299Z,11.57
2019-04-28T23:56:08.798Z,13.47
2019-04-28T23:58:37.502Z,13.27
